Knossos Palace — SYQO — position and weather

sailwx.info

Track history (hours):
 
Tides and Currents Weather Stations Pressure Air Temp Water Temp Dewpoint Dewpoint Depression Visibility Wind Speed Wind Dir Waves Ship Positions

Knossos Palace

Last reported at 2016-May-03 19:34 UTC. Time now 2016-May-04 23:11 UTC.
Position N 37°31' E 023°47'.

Length 214 m; beam 26.4 m; draft 7.3 m.

Type: Ship. MMSI: 237641000.

Date/timePositionNaut miles runAvg speedWind from/ knotsBaromVisibWave heightAir tempDewpointWater temp
2016-May-03 19:34N 37°31' E 023°47'1919.4
2016-May-03 18:34N 37°49' E 023°37'8 7.5
2016-May-03 17:33N 37°57' E 023°38'0 0.0
2016-May-03 16:33N 37°57' E 023°38'0 0.0
2016-May-03 15:33N 37°57' E 023°38'0 0.0
2016-May-03 14:33N 37°57' E 023°38'0 0.0
2016-May-03 13:33N 37°57' E 023°38'0 0.0
2016-May-03 12:33N 37°57' E 023°38'0 0.0
2016-May-03 11:33N 37°57' E 023°38'0 0.0
2016-May-03 10:33N 37°57' E 023°38'0 0.0
2016-May-03 09:33N 37°57' E 023°38'0 0.0
2016-May-03 08:33N 37°57' E 023°38'0 0.0
2016-May-03 07:33N 37°57' E 023°38'0 0.0
2016-May-03 06:33N 37°57' E 023°38'0 0.0
2016-May-03 05:33N 37°57' E 023°38'0 0.0
2016-May-03 04:33N 37°57' E 023°38'1 1.1
2016-May-03 03:33N 37°56' E 023°37'2020.0
2016-May-03 02:33N 37°38' E 023°47'2020.2
2016-May-03 01:33N 37°18' E 023°55'2 0.1
2016-May-01 20:20N 37°19' E 023°53'1418.4
2016-May-01 19:33N 37°32' E 023°46'1918.8
2016-May-01 18:33N 37°50' E 023°37'7 7.2
2016-May-01 17:33N 37°57' E 023°38'0 0.0
2016-May-01 16:32N 37°57' E 023°38'0 0.0
2016-May-01 15:32N 37°57' E 023°38'0 0.0
2016-May-01 14:32N 37°57' E 023°38'0 0.0
2016-May-01 13:32N 37°57' E 023°38'0 0.0
2016-May-01 12:32N 37°57' E 023°38'0 0.0
2016-May-01 11:32N 37°57' E 023°38'0 0.0
2016-May-01 10:32N 37°57' E 023°38'0 0.0
2016-May-01 09:32N 37°57' E 023°38'0 0.0
2016-May-01 08:32N 37°57' E 023°38'0 0.0
2016-May-01 07:32N 37°57' E 023°38'0 0.0
2016-May-01 06:32N 37°57' E 023°38'0 0.0
2016-May-01 05:32N 37°57' E 023°38'0 0.0
2016-May-01 04:32N 37°57' E 023°38'0 0.0
2016-May-01 03:32N 37°57' E 023°38'0 0.0
2016-May-01 02:32N 37°57' E 023°38'0 0.0
2016-May-01 01:32N 37°57' E 023°38'0 0.0
2016-May-01 00:32N 37°57' E 023°38'0 0.0
2016-Apr-30 23:32N 37°57' E 023°38'0 0.0
2016-Apr-30 22:32N 37°57' E 023°38'0 0.0
2016-Apr-30 21:32N 37°57' E 023°38'0 0.0
2016-Apr-30 20:32N 37°57' E 023°38'0 0.0
2016-Apr-30 19:32N 37°57' E 023°38'0 0.0
2016-Apr-30 18:32N 37°57' E 023°38'0 0.0
2016-Apr-30 17:32N 37°57' E 023°38'0 0.0
2016-Apr-30 16:32N 37°57' E 023°38'0 0.0
2016-Apr-30 15:32N 37°57' E 023°38'0 0.0
2016-Apr-30 14:32N 37°57' E 023°38'0 0.0
2016-Apr-30 13:32N 37°57' E 023°38'0 0.0
2016-Apr-30 12:32N 37°57' E 023°38'0 0.0
2016-Apr-30 11:32N 37°57' E 023°38'0 0.0
2016-Apr-30 10:32N 37°57' E 023°38'0 0.0
2016-Apr-30 09:32N 37°57' E 023°38'0 0.0
2016-Apr-30 08:32N 37°57' E 023°38'0 0.0
2016-Apr-30 07:32N 37°57' E 023°38'0 0.0
2016-Apr-30 06:32N 37°57' E 023°38'0 0.0
2016-Apr-30 05:32N 37°57' E 023°38'0 0.0
2016-Apr-30 04:32N 37°57' E 023°38'0 0.4
2016-Apr-30 03:33N 37°56' E 023°38'1817.9
2016-Apr-30 02:33N 37°40' E 023°46'1919.0
2016-Apr-30 01:32N 37°21' E 023°54'95 3.9
2016-Apr-29 01:16N 35°56' E 024°45'5919.6
2016-Apr-28 22:14N 36°48' E 024°09'1419.7
2016-Apr-28 21:33N 37°00' E 024°03'1919.5
2016-Apr-28 20:33N 37°18' E 023°54'1919.3
2016-Apr-28 19:33N 37°36' E 023°44'1918.9
2016-Apr-28 18:33N 37°54' E 023°37'3 2.8
2016-Apr-28 17:33N 37°57' E 023°38'0 0.0
2016-Apr-28 16:33N 37°57' E 023°38'0 0.0
2016-Apr-28 15:33N 37°57' E 023°38'1615.9
2016-Apr-28 14:33N 37°42' E 023°45'2424.3
2016-Apr-28 13:33N 37°19' E 023°56'2524.7
2016-Apr-28 12:33N 36°56' E 024°07'10024.4
2016-Apr-28 08:27N 35°27' E 025°06'96 9.5
2016-Apr-27 22:19N 36°51' E 024°07'1519.6
2016-Apr-27 21:33N 37°05' E 024°00'2019.7
2016-Apr-27 20:33N 37°23' E 023°51'1919.4
2016-Apr-27 19:33N 37°41' E 023°42'1615.6
2016-Apr-27 18:33N 37°57' E 023°38'0 0.0
2016-Apr-27 17:32N 37°57' E 023°38'0 0.0
2016-Apr-27 16:32N 37°57' E 023°38'0 0.0
2016-Apr-27 15:33N 37°57' E 023°38'1717.3
2016-Apr-27 14:34N 37°40' E 023°45'19 1.1
2016-Apr-26 20:26N 37°22' E 023°52'1719.7
2016-Apr-26 19:33N 37°38' E 023°43'1918.9
2016-Apr-26 18:34N 37°56' E 023°37'1 1.1
2016-Apr-26 17:32N 37°57' E 023°38'0 0.0
2016-Apr-26 16:32N 37°57' E 023°38'0 0.0
2016-Apr-26 15:32N 37°57' E 023°38'0 0.0
2016-Apr-26 14:32N 37°57' E 023°38'0 0.0
2016-Apr-26 13:32N 37°57' E 023°38'0 0.0
2016-Apr-26 12:32N 37°57' E 023°38'0 0.0
2016-Apr-26 11:32N 37°57' E 023°38'0 0.0
2016-Apr-26 10:32N 37°57' E 023°38'0 0.0
2016-Apr-26 09:32N 37°57' E 023°38'0 0.0
2016-Apr-26 08:32N 37°57' E 023°38'0 0.0
2016-Apr-26 07:32N 37°57' E 023°38'0 0.0
2016-Apr-26 06:32N 37°57' E 023°38'0 0.0
2016-Apr-26 05:32N 37°57' E 023°38'0 0.0
2016-Apr-26 04:32N 37°57' E 023°38'6 5.9
2016-Apr-26 03:34N 37°51' E 023°40'2019.7
2016-Apr-26 02:33N 37°33' E 023°49'17 0.6
2016-Apr-24 20:27N 37°17' E 023°54'1719.5
2016-Apr-24 19:33N 37°32' E 023°46'1919.3
2016-Apr-24 18:33N 37°50' E 023°37'6 6.0
2016-Apr-24 17:31N 37°57' E 023°38'0 0.0
2016-Apr-24 16:31N 37°57' E 023°38'0 0.0
2016-Apr-24 15:31N 37°57' E 023°38'0 0.0
2016-Apr-24 14:31N 37°57' E 023°38'0 0.0
2016-Apr-24 13:31N 37°57' E 023°38'0 0.0
2016-Apr-24 12:31N 37°57' E 023°38'0 0.0
2016-Apr-24 11:31N 37°57' E 023°38'0 0.0
2016-Apr-24 10:31N 37°57' E 023°38'0 0.0
2016-Apr-24 09:31N 37°57' E 023°38'0 0.0
2016-Apr-24 08:31N 37°57' E 023°38'0 0.0
2016-Apr-24 07:31N 37°57' E 023°38'0 0.0
2016-Apr-24 06:31N 37°57' E 023°38'0 0.0
2016-Apr-24 05:31N 37°57' E 023°38'0 0.0
2016-Apr-24 04:31N 37°57' E 023°38'2 1.7
2016-Apr-24 03:34N 37°55' E 023°37'2020.0
2016-Apr-24 02:34N 37°37' E 023°48'2020.0
2016-Apr-24 01:32N 37°18' E 023°56'  
Track history (hours):
 
Tides and Currents Weather Stations Pressure Air Temp Water Temp Dewpoint Dewpoint Depression Visibility Wind Speed Wind Dir Waves Ship Positions

Knossos Palace

Last reported at 2016-May-03 19:34 UTC. Time now 2016-May-04 23:11 UTC.
Position N 37°31' E 023°47'.

Length 214 m; beam 26.4 m; draft 7.3 m.

Type: Ship. MMSI: 237641000.

Date/timePositionNaut miles runAvg speedWind from/ knotsBaromVisibWave heightAir tempDewpointWater temp
2016-May-03 19:34N 37°31' E 023°47'1919.4
2016-May-03 18:34N 37°49' E 023°37'8 7.5
2016-May-03 17:33N 37°57' E 023°38'0 0.0
2016-May-03 16:33N 37°57' E 023°38'0 0.0
2016-May-03 15:33N 37°57' E 023°38'0 0.0
2016-May-03 14:33N 37°57' E 023°38'0 0.0
2016-May-03 13:33N 37°57' E 023°38'0 0.0
2016-May-03 12:33N 37°57' E 023°38'0 0.0
2016-May-03 11:33N 37°57' E 023°38'0 0.0
2016-May-03 10:33N 37°57' E 023°38'0 0.0
2016-May-03 09:33N 37°57' E 023°38'0 0.0
2016-May-03 08:33N 37°57' E 023°38'0 0.0
2016-May-03 07:33N 37°57' E 023°38'0 0.0
2016-May-03 06:33N 37°57' E 023°38'0 0.0
2016-May-03 05:33N 37°57' E 023°38'0 0.0
2016-May-03 04:33N 37°57' E 023°38'1 1.1
2016-May-03 03:33N 37°56' E 023°37'2020.0
2016-May-03 02:33N 37°38' E 023°47'2020.2
2016-May-03 01:33N 37°18' E 023°55'2 0.1
2016-May-01 20:20N 37°19' E 023°53'1418.4
2016-May-01 19:33N 37°32' E 023°46'1918.8
2016-May-01 18:33N 37°50' E 023°37'7 7.2
2016-May-01 17:33N 37°57' E 023°38'0 0.0
2016-May-01 16:32N 37°57' E 023°38'0 0.0
2016-May-01 15:32N 37°57' E 023°38'0 0.0
2016-May-01 14:32N 37°57' E 023°38'0 0.0
2016-May-01 13:32N 37°57' E 023°38'0 0.0
2016-May-01 12:32N 37°57' E 023°38'0 0.0
2016-May-01 11:32N 37°57' E 023°38'0 0.0
2016-May-01 10:32N 37°57' E 023°38'0 0.0
2016-May-01 09:32N 37°57' E 023°38'0 0.0
2016-May-01 08:32N 37°57' E 023°38'0 0.0
2016-May-01 07:32N 37°57' E 023°38'0 0.0
2016-May-01 06:32N 37°57' E 023°38'0 0.0
2016-May-01 05:32N 37°57' E 023°38'0 0.0
2016-May-01 04:32N 37°57' E 023°38'0 0.0
2016-May-01 03:32N 37°57' E 023°38'0 0.0
2016-May-01 02:32N 37°57' E 023°38'0 0.0
2016-May-01 01:32N 37°57' E 023°38'0 0.0
2016-May-01 00:32N 37°57' E 023°38'0 0.0
2016-Apr-30 23:32N 37°57' E 023°38'0 0.0
2016-Apr-30 22:32N 37°57' E 023°38'0 0.0
2016-Apr-30 21:32N 37°57' E 023°38'0 0.0
2016-Apr-30 20:32N 37°57' E 023°38'0 0.0
2016-Apr-30 19:32N 37°57' E 023°38'0 0.0
2016-Apr-30 18:32N 37°57' E 023°38'0 0.0
2016-Apr-30 17:32N 37°57' E 023°38'0 0.0
2016-Apr-30 16:32N 37°57' E 023°38'0 0.0
2016-Apr-30 15:32N 37°57' E 023°38'0 0.0
2016-Apr-30 14:32N 37°57' E 023°38'0 0.0
2016-Apr-30 13:32N 37°57' E 023°38'0 0.0
2016-Apr-30 12:32N 37°57' E 023°38'0 0.0
2016-Apr-30 11:32N 37°57' E 023°38'0 0.0
2016-Apr-30 10:32N 37°57' E 023°38'0 0.0
2016-Apr-30 09:32N 37°57' E 023°38'0 0.0
2016-Apr-30 08:32N 37°57' E 023°38'0 0.0
2016-Apr-30 07:32N 37°57' E 023°38'0 0.0
2016-Apr-30 06:32N 37°57' E 023°38'0 0.0
2016-Apr-30 05:32N 37°57' E 023°38'0 0.0
2016-Apr-30 04:32N 37°57' E 023°38'0 0.4
2016-Apr-30 03:33N 37°56' E 023°38'1817.9
2016-Apr-30 02:33N 37°40' E 023°46'1919.0
2016-Apr-30 01:32N 37°21' E 023°54'95 3.9
2016-Apr-29 01:16N 35°56' E 024°45'5919.6
2016-Apr-28 22:14N 36°48' E 024°09'1419.7
2016-Apr-28 21:33N 37°00' E 024°03'1919.5
2016-Apr-28 20:33N 37°18' E 023°54'1919.3
2016-Apr-28 19:33N 37°36' E 023°44'1918.9
2016-Apr-28 18:33N 37°54' E 023°37'3 2.8
2016-Apr-28 17:33N 37°57' E 023°38'0 0.0
2016-Apr-28 16:33N 37°57' E 023°38'0 0.0
2016-Apr-28 15:33N 37°57' E 023°38'1615.9
2016-Apr-28 14:33N 37°42' E 023°45'2424.3
2016-Apr-28 13:33N 37°19' E 023°56'2524.7
2016-Apr-28 12:33N 36°56' E 024°07'10024.4
2016-Apr-28 08:27N 35°27' E 025°06'96 9.5
2016-Apr-27 22:19N 36°51' E 024°07'1519.6
2016-Apr-27 21:33N 37°05' E 024°00'2019.7
2016-Apr-27 20:33N 37°23' E 023°51'1919.4
2016-Apr-27 19:33N 37°41' E 023°42'1615.6
2016-Apr-27 18:33N 37°57' E 023°38'0 0.0
2016-Apr-27 17:32N 37°57' E 023°38'0 0.0
2016-Apr-27 16:32N 37°57' E 023°38'0 0.0
2016-Apr-27 15:33N 37°57' E 023°38'1717.3
2016-Apr-27 14:34N 37°40' E 023°45'19 1.1
2016-Apr-26 20:26N 37°22' E 023°52'1719.7
2016-Apr-26 19:33N 37°38' E 023°43'1918.9
2016-Apr-26 18:34N 37°56' E 023°37'1 1.1
2016-Apr-26 17:32N 37°57' E 023°38'0 0.0
2016-Apr-26 16:32N 37°57' E 023°38'0 0.0
2016-Apr-26 15:32N 37°57' E 023°38'0 0.0
2016-Apr-26 14:32N 37°57' E 023°38'0 0.0
2016-Apr-26 13:32N 37°57' E 023°38'0 0.0
2016-Apr-26 12:32N 37°57' E 023°38'0 0.0
2016-Apr-26 11:32N 37°57' E 023°38'0 0.0
2016-Apr-26 10:32N 37°57' E 023°38'0 0.0
2016-Apr-26 09:32N 37°57' E 023°38'0 0.0
2016-Apr-26 08:32N 37°57' E 023°38'0 0.0
2016-Apr-26 07:32N 37°57' E 023°38'0 0.0
2016-Apr-26 06:32N 37°57' E 023°38'0 0.0
2016-Apr-26 05:32N 37°57' E 023°38'0 0.0
2016-Apr-26 04:32N 37°57' E 023°38'6 5.9
2016-Apr-26 03:34N 37°51' E 023°40'2019.7
2016-Apr-26 02:33N 37°33' E 023°49'17 0.6
2016-Apr-24 20:27N 37°17' E 023°54'1719.5
2016-Apr-24 19:33N 37°32' E 023°46'1919.3
2016-Apr-24 18:33N 37°50' E 023°37'6 6.0
2016-Apr-24 17:31N 37°57' E 023°38'0 0.0
2016-Apr-24 16:31N 37°57' E 023°38'0 0.0
2016-Apr-24 15:31N 37°57' E 023°38'0 0.0
2016-Apr-24 14:31N 37°57' E 023°38'0 0.0
2016-Apr-24 13:31N 37°57' E 023°38'0 0.0
2016-Apr-24 12:31N 37°57' E 023°38'0 0.0
2016-Apr-24 11:31N 37°57' E 023°38'0 0.0
2016-Apr-24 10:31N 37°57' E 023°38'0 0.0
2016-Apr-24 09:31N 37°57' E 023°38'0 0.0
2016-Apr-24 08:31N 37°57' E 023°38'0 0.0
2016-Apr-24 07:31N 37°57' E 023°38'0 0.0
2016-Apr-24 06:31N 37°57' E 023°38'0 0.0
2016-Apr-24 05:31N 37°57' E 023°38'0 0.0
2016-Apr-24 04:31N 37°57' E 023°38'2 1.7
2016-Apr-24 03:34N 37°55' E 023°37'2020.0
2016-Apr-24 02:34N 37°37' E 023°48'2020.0
2016-Apr-24 01:32N 37°18' E 023°56'  

Dump ship's entire track history